sensor_id;sensor_type;location;lat;lon;timestamp;pressure;altitude;pressure_sealevel;temperature;humidity
29045;BME280;16133;49.486;12.176;2023-04-25T00:00:14;96391.38;;;4.34;100.00
29045;BME280;16133;49.486;12.176;2023-04-25T00:02:40;96394.66;;;4.37;100.00
29045;BME280;16133;49.486;12.176;2023-04-25T00:05:07;96397.78;;;4.40;100.00
29045;BME280;16133;49.486;12.176;2023-04-25T00:07:33;96387.09;;;4.42;100.00
29045;BME280;16133;49.486;12.176;2023-04-25T00:09:58;96395.63;;;4.44;100.00
29045;BME280;16133;49.486;12.176;2023-04-25T00:12:24;96389.56;;;4.43;100.00
29045;BME280;16133;49.486;12.176;2023-04-25T00:14:49;96388.25;;;4.39;100.00
29045;BME280;16133;49.486;12.176;2023-04-25T00:17:15;96395.28;;;4.47;100.00
29045;BME280;16133;49.486;12.176;2023-04-25T00:19:42;96399.38;;;4.49;100.00
29045;BME280;16133;49.486;12.176;2023-04-25T00:22:09;96399.22;;;4.51;100.00
29045;BME280;16133;49.486;12.176;2023-04-25T00:24:35;96400.88;;;4.52;100.00
29045;BME280;16133;49.486;12.176;2023-04-25T00:27:00;96390.19;;;4.53;100.00
29045;BME280;16133;49.486;12.176;2023-04-25T00:29:25;96397.91;;;4.55;100.00
29045;BME280;16133;49.486;12.176;2023-04-25T00:31:51;96389.38;;;4.53;100.00
29045;BME280;16133;49.486;12.176;2023-04-25T00:34:16;96396.09;;;4.55;100.00
29045;BME280;16133;49.486;12.176;2023-04-25T00:36:42;96387.41;;;4.55;100.00
29045;BME280;16133;49.486;12.176;2023-04-25T00:39:07;96384.94;;;4.53;100.00
29045;BME280;16133;49.486;12.176;2023-04-25T00:41:32;96384.78;;;4.55;100.00
29045;BME280;16133;49.486;12.176;2023-04-25T00:43:59;96388.03;;;4.57;100.00
29045;BME280;16133;49.486;12.176;2023-04-25T00:46:24;96380.84;;;4.59;100.00
29045;BME280;16133;49.486;12.176;2023-04-25T00:48:49;96384.09;;;4.61;100.00
29045;BME280;16133;49.486;12.176;2023-04-25T00:51:20;96375.88;;;4.64;100.00
29045;BME280;16133;49.486;12.176;2023-04-25T00:53:47;96367.69;;;4.67;100.00
29045;BME280;16133;49.486;12.176;2023-04-25T00:56:13;96363.88;;;4.69;100.00
29045;BME280;16133;49.486;12.176;2023-04-25T00:58:40;96366.34;;;4.71;100.00
29045;BME280;16133;49.486;12.176;2023-04-25T01:01:06;96364.38;;;4.73;100.00
29045;BME280;16133;49.486;12.176;2023-04-25T01:03:33;96360.75;;;4.74;100.00
29045;BME280;16133;49.486;12.176;2023-04-25T01:06:01;96359.78;;;4.75;100.00
29045;BME280;16133;49.486;12.176;2023-04-25T01:08:28;96359.78;;;4.75;100.00
29045;BME280;16133;49.486;12.176;2023-04-25T01:10:53;96363.19;;;4.75;100.00
29045;BME280;16133;49.486;12.176;2023-04-25T01:13:18;96371.59;;;4.79;100.00
29045;BME280;16133;49.486;12.176;2023-04-25T01:15:45;96378.47;;;4.80;100.00
29045;BME280;16133;49.486;12.176;2023-04-25T01:18:10;96373.88;;;4.82;100.00
29045;BME280;16133;49.486;12.176;2023-04-25T01:20:37;96375.34;;;4.85;100.00
29045;BME280;16133;49.486;12.176;2023-04-25T01:23:03;96368.13;;;4.87;100.00
29045;BME280;16133;49.486;12.176;2023-04-25T01:25:30;96368.59;;;4.90;100.00
29045;BME280;16133;49.486;12.176;2023-04-25T01:27:57;96362.16;;;4.93;100.00
29045;BME280;16133;49.486;12.176;2023-04-25T01:30:22;96359.19;;;4.96;100.00
29045;BME280;16133;49.486;12.176;2023-04-25T01:32:49;96360.84;;;4.97;100.00
29045;BME280;16133;49.486;12.176;2023-04-25T01:35:14;96355.59;;;4.97;100.00
29045;BME280;16133;49.486;12.176;2023-04-25T01:37:43;96355.59;;;4.97;100.00
29045;BME280;16133;49.486;12.176;2023-04-25T01:40:10;96352.78;;;4.98;100.00
29045;BME280;16133;49.486;12.176;2023-04-25T01:42:38;96352.44;;;5.01;100.00
29045;BME280;16133;49.486;12.176;2023-04-25T01:45:04;96344.38;;;5.03;100.00
29045;BME280;16133;49.486;12.176;2023-04-25T01:47:30;96340.75;;;5.04;100.00
29045;BME280;16133;49.486;12.176;2023-04-25T01:49:55;96347.00;;;5.03;100.00
29045;BME280;16133;49.486;12.176;2023-04-25T01:52:20;96336.34;;;4.96;100.00
29045;BME280;16133;49.486;12.176;2023-04-25T01:54:47;96335.88;;;4.93;100.00
29045;BME280;16133;49.486;12.176;2023-04-25T01:57:13;96343.91;;;4.99;100.00
29045;BME280;16133;49.486;12.176;2023-04-25T01:59:39;96356.06;;;5.00;100.00
29045;BME280;16133;49.486;12.176;2023-04-25T02:02:04;96354.06;;;5.02;100.00
29045;BME280;16133;49.486;12.176;2023-04-25T02:04:30;96351.94;;;5.06;100.00
29045;BME280;16133;49.486;12.176;2023-04-25T02:06:56;96341.91;;;5.09;100.00
29045;BME280;16133;49.486;12.176;2023-04-25T02:09:21;96344.81;;;5.14;100.00
29045;BME280;16133;49.486;12.176;2023-04-25T02:11:47;96345.94;;;5.20;100.00
29045;BME280;16133;49.486;12.176;2023-04-25T02:14:13;96331.47;;;5.24;100.00
29045;BME280;16133;49.486;12.176;2023-04-25T02:16:38;96325.69;;;5.28;100.00
29045;BME280;16133;49.486;12.176;2023-04-25T02:19:04;96333.22;;;5.32;100.00
29045;BME280;16133;49.486;12.176;2023-04-25T02:21:30;96327.63;;;5.35;100.00
29045;BME280;16133;49.486;12.176;2023-04-25T02:23:56;96326.28;;;5.39;100.00
29045;BME280;16133;49.486;12.176;2023-04-25T02:26:21;96318.84;;;5.42;100.00
29045;BME280;16133;49.486;12.176;2023-04-25T02:28:49;96317.69;;;5.45;100.00
29045;BME280;16133;49.486;12.176;2023-04-25T02:31:14;96315.03;;;5.45;100.00
29045;BME280;16133;49.486;12.176;2023-04-25T02:33:40;96312.59;;;5.43;100.00
29045;BME280;16133;49.486;12.176;2023-04-25T02:36:05;96315.34;;;5.50;100.00
29045;BME280;16133;49.486;12.176;2023-04-25T02:38:31;96317.00;;;5.51;100.00
29045;BME280;16133;49.486;12.176;2023-04-25T02:40:56;96307.47;;;5.50;100.00
29045;BME280;16133;49.486;12.176;2023-04-25T02:43:21;96304.38;;;5.46;100.00
29045;BME280;16133;49.486;12.176;2023-04-25T02:45:47;96307.47;;;5.50;100.00
29045;BME280;16133;49.486;12.176;2023-04-25T02:48:12;96308.13;;;5.52;100.00
29045;BME280;16133;49.486;12.176;2023-04-25T02:50:37;96305.50;;;5.52;100.00
29045;BME280;16133;49.486;12.176;2023-04-25T02:53:03;96273.00;;;5.37;100.00
29045;BME280;16133;49.486;12.176;2023-04-25T02:55:28;96281.66;;;5.45;100.00
29045;BME280;16133;49.486;12.176;2023-04-25T02:57:53;96298.69;;;5.57;100.00
29045;BME280;16133;49.486;12.176;2023-04-25T03:00:20;96294.09;;;5.59;100.00
29045;BME280;16133;49.486;12.176;2023-04-25T03:02:46;96290.44;;;5.60;100.00
29045;BME280;16133;49.486;12.176;2023-04-25T03:05:11;96276.19;;;5.55;100.00
29045;BME280;16133;49.486;12.176;2023-04-25T03:07:37;96280.56;;;5.62;100.00
29045;BME280;16133;49.486;12.176;2023-04-25T03:10:05;96287.28;;;5.65;100.00
29045;BME280;16133;49.486;12.176;2023-04-25T03:12:31;96238.34;;;5.33;100.00
29045;BME280;16133;49.486;12.176;2023-04-25T03:14:56;96294.88;;;5.60;100.00
29045;BME280;16133;49.486;12.176;2023-04-25T03:17:21;96300.63;;;5.63;100.00
29045;BME280;16133;49.486;12.176;2023-04-25T03:19:47;96300.81;;;5.62;100.00
29045;BME280;16133;49.486;12.176;2023-04-25T03:22:13;96289.97;;;5.57;100.00
29045;BME280;16133;49.486;12.176;2023-04-25T03:24:38;96270.00;;;5.48;100.00
29045;BME280;16133;49.486;12.176;2023-04-25T03:27:03;96288.31;;;5.56;100.00
29045;BME280;16133;49.486;12.176;2023-04-25T03:29:29;96277.53;;;5.51;100.00
29045;BME280;16133;49.486;12.176;2023-04-25T03:31:54;96244.16;;;5.28;100.00
29045;BME280;16133;49.486;12.176;2023-04-25T03:34:19;96287.41;;;5.49;100.00
29045;BME280;16133;49.486;12.176;2023-04-25T03:36:46;96289.03;;;5.50;100.00
29045;BME280;16133;49.486;12.176;2023-04-25T03:39:11;96299.56;;;5.50;100.00
29045;BME280;16133;49.486;12.176;2023-04-25T03:41:37;96295.66;;;5.46;100.00
29045;BME280;16133;49.486;12.176;2023-04-25T03:44:02;96279.28;;;5.36;100.00
29045;BME280;16133;49.486;12.176;2023-04-25T03:46:28;96248.75;;;5.04;100.00
29045;BME280;16133;49.486;12.176;2023-04-25T03:48:53;96236.88;;;4.85;100.00
29045;BME280;16133;49.486;12.176;2023-04-25T03:51:18;96222.59;;;4.79;100.00
29045;BME280;16133;49.486;12.176;2023-04-25T03:53:43;96246.91;;;4.81;100.00
29045;BME280;16133;49.486;12.176;2023-04-25T03:56:09;96229.25;;;4.67;100.00
29045;BME280;16133;49.486;12.176;2023-04-25T03:58:34;96237.59;;;4.71;100.00
29045;BME280;16133;49.486;12.176;2023-04-25T04:01:00;96224.53;;;4.55;100.00
29045;BME280;16133;49.486;12.176;2023-04-25T04:03:27;96237.13;;;4.67;100.00
29045;BME280;16133;49.486;12.176;2023-04-25T04:05:53;96281.16;;;4.96;100.00
29045;BME280;16133;49.486;12.176;2023-04-25T04:08:18;96216.34;;;4.50;100.00
29045;BME280;16133;49.486;12.176;2023-04-25T04:10:43;96241.38;;;4.68;100.00
29045;BME280;16133;49.486;12.176;2023-04-25T04:13:09;96311.66;;;5.13;100.00
29045;BME280;16133;49.486;12.176;2023-04-25T04:15:34;96277.91;;;4.94;100.00
29045;BME280;16133;49.486;12.176;2023-04-25T04:17:59;96305.38;;;5.14;100.00
29045;BME280;16133;49.486;12.176;2023-04-25T04:20:28;96231.81;;;4.75;100.00
29045;BME280;16133;49.486;12.176;2023-04-25T04:22:54;96267.16;;;5.04;100.00
29045;BME280;16133;49.486;12.176;2023-04-25T04:25:20;96299.09;;;5.23;100.00
29045;BME280;16133;49.486;12.176;2023-04-25T04:27:45;96281.84;;;5.21;100.00
29045;BME280;16133;49.486;12.176;2023-04-25T04:30:11;96229.25;;;4.98;100.00
29045;BME280;16133;49.486;12.176;2023-04-25T04:32:37;96241.59;;;5.20;100.00
29045;BME280;16133;49.486;12.176;2023-04-25T04:35:03;96269.81;;;5.49;100.00
29045;BME280;16133;49.486;12.176;2023-04-25T04:37:29;96252.06;;;5.51;100.00
29045;BME280;16133;49.486;12.176;2023-04-25T04:39:55;96257.00;;;5.69;100.00
29045;BME280;16133;49.486;12.176;2023-04-25T04:42:20;96239.56;;;5.68;100.00
29045;BME280;16133;49.486;12.176;2023-04-25T04:44:46;96201.81;;;5.61;100.00
29045;BME280;16133;49.486;12.176;2023-04-25T04:47:11;96229.75;;;5.99;100.00
29045;BME280;16133;49.486;12.176;2023-04-25T04:49:39;96231.69;;;6.05;100.00
29045;BME280;16133;49.486;12.176;2023-04-25T04:52:04;96230.06;;;6.04;100.00
29045;BME280;16133;49.486;12.176;2023-04-25T04:54:30;96221.41;;;6.10;100.00
29045;BME280;16133;49.486;12.176;2023-04-25T04:56:55;96225.25;;;6.22;100.00
29045;BME280;16133;49.486;12.176;2023-04-25T04:59:21;96221.06;;;6.43;100.00
29045;BME280;16133;49.486;12.176;2023-04-25T05:01:46;96223.06;;;6.55;100.00
29045;BME280;16133;49.486;12.176;2023-04-25T05:04:12;96222.47;;;6.74;100.00
29045;BME280;16133;49.486;12.176;2023-04-25T05:06:37;96214.81;;;6.80;100.00
29045;BME280;16133;49.486;12.176;2023-04-25T05:09:02;96219.72;;;6.97;100.00
29045;BME280;16133;49.486;12.176;2023-04-25T05:11:28;96209.94;;;7.12;100.00
29045;BME280;16133;49.486;12.176;2023-04-25T05:13:53;96198.38;;;7.35;100.00
29045;BME280;16133;49.486;12.176;2023-04-25T05:16:19;96203.47;;;7.85;100.00
29045;BME280;16133;49.486;12.176;2023-04-25T05:18:46;96197.88;;;8.29;100.00
29045;BME280;16133;49.486;12.176;2023-04-25T05:21:12;96177.28;;;8.59;100.00
29045;BME280;16133;49.486;12.176;2023-04-25T05:23:37;96192.06;;;8.94;100.00
29045;BME280;16133;49.486;12.176;2023-04-25T05:26:02;96186.66;;;9.16;100.00
29045;BME280;16133;49.486;12.176;2023-04-25T05:28:28;96190.72;;;9.25;100.00
29045;BME280;16133;49.486;12.176;2023-04-25T05:30:53;96203.75;;;9.33;100.00
29045;BME280;16133;49.486;12.176;2023-04-25T05:33:19;96213.34;;;9.27;100.00
29045;BME280;16133;49.486;12.176;2023-04-25T05:35:44;96216.34;;;9.04;100.00
29045;BME280;16133;49.486;12.176;2023-04-25T05:38:10;96261.72;;;9.08;100.00
29045;BME280;16133;49.486;12.176;2023-04-25T05:40:35;96255.69;;;8.80;100.00
29045;BME280;16133;49.486;12.176;2023-04-25T05:43:01;96306.75;;;8.74;100.00
29045;BME280;16133;49.486;12.176;2023-04-25T05:45:26;96288.25;;;8.46;100.00
29045;BME280;16133;49.486;12.176;2023-04-25T05:47:51;96302.75;;;8.56;100.00
29045;BME280;16133;49.486;12.176;2023-04-25T05:50:17;96307.47;;;8.61;100.00
29045;BME280;16133;49.486;12.176;2023-04-25T05:52:42;96310.78;;;8.70;100.00
29045;BME280;16133;49.486;12.176;2023-04-25T05:55:08;96314.06;;;8.78;100.00
29045;BME280;16133;49.486;12.176;2023-04-25T05:57:33;96315.16;;;8.90;100.00
29045;BME280;16133;49.486;12.176;2023-04-25T05:59:58;96314.97;;;8.92;100.00
29045;BME280;16133;49.486;12.176;2023-04-25T06:02:24;96348.38;;;8.93;100.00
29045;BME280;16133;49.486;12.176;2023-04-25T06:04:50;96403.81;;;8.80;100.00
29045;BME280;16133;49.486;12.176;2023-04-25T06:07:15;96463.53;;;8.68;100.00
29045;BME280;16133;49.486;12.176;2023-04-25T06:09:41;96482.06;;;8.46;100.00
29045;BME280;16133;49.486;12.176;2023-04-25T06:12:06;96519.75;;;8.55;100.00
29045;BME280;16133;49.486;12.176;2023-04-25T06:14:33;96544.47;;;8.47;100.00
29045;BME280;16133;49.486;12.176;2023-04-25T06:16:59;96556.19;;;8.38;100.00
29045;BME280;16133;49.486;12.176;2023-04-25T06:19:31;96563.75;;;8.27;100.00
29045;BME280;16133;49.486;12.176;2023-04-25T06:21:56;96566.66;;;8.32;100.00
29045;BME280;16133;49.486;12.176;2023-04-25T06:24:21;96579.44;;;8.43;100.00
29045;BME280;16133;49.486;12.176;2023-04-25T06:26:47;96542.25;;;8.30;100.00
29045;BME280;16133;49.486;12.176;2023-04-25T06:29:12;96557.00;;;8.39;100.00
29045;BME280;16133;49.486;12.176;2023-04-25T06:31:37;96560.28;;;8.41;100.00
29045;BME280;16133;49.486;12.176;2023-04-25T06:34:03;96529.34;;;8.05;100.00
29045;BME280;16133;49.486;12.176;2023-04-25T06:36:28;96568.84;;;8.28;100.00
29045;BME280;16133;49.486;12.176;2023-04-25T06:38:53;96560.47;;;8.25;100.00
29045;BME280;16133;49.486;12.176;2023-04-25T06:41:20;96549.28;;;8.23;100.00
29045;BME280;16133;49.486;12.176;2023-04-25T06:43:45;96576.44;;;8.31;100.00
29045;BME280;16133;49.486;12.176;2023-04-25T06:46:10;96544.78;;;8.38;100.00
29045;BME280;16133;49.486;12.176;2023-04-25T06:48:36;96554.63;;;9.07;100.00
29045;BME280;16133;49.486;12.176;2023-04-25T06:51:01;96567.81;;;9.56;100.00
29045;BME280;16133;49.486;12.176;2023-04-25T06:53:27;96574.56;;;9.93;100.00
29045;BME280;16133;49.486;12.176;2023-04-25T06:55:52;96585.13;;;10.21;100.00
29045;BME280;16133;49.486;12.176;2023-04-25T06:58:18;96585.25;;;10.54;100.00
29045;BME280;16133;49.486;12.176;2023-04-25T07:00:43;96562.66;;;10.71;100.00
29045;BME280;16133;49.486;12.176;2023-04-25T07:03:08;96574.53;;;11.01;100.00
29045;BME280;16133;49.486;12.176;2023-04-25T07:05:34;96594.78;;;11.29;100.00
29045;BME280;16133;49.486;12.176;2023-04-25T07:08:00;96567.00;;;11.25;100.00
29045;BME280;16133;49.486;12.176;2023-04-25T07:10:25;96588.06;;;11.33;100.00
29045;BME280;16133;49.486;12.176;2023-04-25T07:12:50;96589.88;;;11.13;94.38
29045;BME280;16133;49.486;12.176;2023-04-25T07:15:16;96586.34;;;10.79;96.26
29045;BME280;16133;49.486;12.176;2023-04-25T07:17:41;96599.81;;;10.78;96.72
29045;BME280;16133;49.486;12.176;2023-04-25T07:20:07;96599.63;;;10.79;94.90
29045;BME280;16133;49.486;12.176;2023-04-25T07:22:34;96597.31;;;10.63;94.27
29045;BME280;16133;49.486;12.176;2023-04-25T08:45:45;96679.59;;;9.73;75.45
29045;BME280;16133;49.486;12.176;2023-04-25T08:48:12;96686.81;;;9.86;76.57
29045;BME280;16133;49.486;12.176;2023-04-25T08:50:56;96682.06;;;10.02;75.61
29045;BME280;16133;49.486;12.176;2023-04-25T08:53:28;96691.50;;;10.12;76.45
29045;BME280;16133;49.486;12.176;2023-04-25T08:55:55;96689.03;;;10.38;75.55
29045;BME280;16133;49.486;12.176;2023-04-25T08:58:21;96696.56;;;10.82;75.23
29045;BME280;16133;49.486;12.176;2023-04-25T09:00:47;96698.19;;;11.37;74.05
29045;BME280;16133;49.486;12.176;2023-04-25T09:03:13;96697.19;;;11.64;73.94
29045;BME280;16133;49.486;12.176;2023-04-25T09:05:40;96706.63;;;11.86;72.79
29045;BME280;16133;49.486;12.176;2023-04-25T09:08:06;96703.34;;;11.84;70.38
29045;BME280;16133;49.486;12.176;2023-04-25T09:10:31;96717.22;;;11.60;73.22
29045;BME280;16133;49.486;12.176;2023-04-25T09:13:12;96721.03;;;11.25;74.78
29045;BME280;16133;49.486;12.176;2023-04-25T09:15:51;96721.56;;;11.00;75.16
29045;BME280;16133;49.486;12.176;2023-04-25T09:20:56;96728.00;;;10.78;78.23
29045;BME280;16133;49.486;12.176;2023-04-25T09:23:23;96727.22;;;10.84;78.48
29045;BME280;16133;49.486;12.176;2023-04-25T09:25:51;96734.56;;;10.89;79.28
29045;BME280;16133;49.486;12.176;2023-04-25T09:28:24;96737.44;;;10.87;79.31
29045;BME280;16133;49.486;12.176;2023-04-25T09:30:56;96738.13;;;11.02;84.60
29045;BME280;16133;49.486;12.176;2023-04-25T09:33:33;96736.53;;;11.21;85.52
29045;BME280;16133;49.486;12.176;2023-04-25T09:36:06;96745.16;;;11.43;82.28
29045;BME280;16133;49.486;12.176;2023-04-25T09:38:40;96737.03;;;11.58;78.75
29045;BME280;16133;49.486;12.176;2023-04-25T09:41:06;96745.06;;;11.77;79.75
29045;BME280;16133;49.486;12.176;2023-04-25T09:43:32;96736.91;;;11.98;74.06
29045;BME280;16133;49.486;12.176;2023-04-25T09:45:57;96745.28;;;12.09;74.53
29045;BME280;16133;49.486;12.176;2023-04-25T09:48:25;96747.13;;;12.08;75.88
29045;BME280;16133;49.486;12.176;2023-04-25T09:51:12;96747.13;;;12.15;75.29
29045;BME280;16133;49.486;12.176;2023-04-25T09:53:40;96744.81;;;12.64;70.58
29045;BME280;16133;49.486;12.176;2023-04-25T09:56:08;96747.66;;;12.76;68.90
29045;BME280;16133;49.486;12.176;2023-04-25T09:58:35;96742.84;;;12.98;70.58
29045;BME280;16133;49.486;12.176;2023-04-25T10:01:04;96730.84;;;13.26;69.92
29045;BME280;16133;49.486;12.176;2023-04-25T10:03:32;96738.94;;;13.82;67.86
29045;BME280;16133;49.486;12.176;2023-04-25T10:06:02;96745.00;;;14.21;68.54
29045;BME280;16133;49.486;12.176;2023-04-25T10:08:34;96735.28;;;14.26;64.78
29045;BME280;16133;49.486;12.176;2023-04-25T10:11:05;96737.03;;;14.14;62.27
29045;BME280;16133;49.486;12.176;2023-04-25T10:13:33;96738.13;;;14.07;62.23
29045;BME280;16133;49.486;12.176;2023-04-25T10:16:00;96745.81;;;14.21;62.09
29045;BME280;16133;49.486;12.176;2023-04-25T10:18:28;96738.94;;;14.32;60.59
29045;BME280;16133;49.486;12.176;2023-04-25T10:21:05;96725.50;;;14.45;59.00
29045;BME280;16133;49.486;12.176;2023-04-25T10:23:31;96733.84;;;14.73;59.75
29045;BME280;16133;49.486;12.176;2023-04-25T10:25:58;96739.91;;;14.99;57.98
29045;BME280;16133;49.486;12.176;2023-04-25T10:28:24;96739.16;;;14.92;57.13
29045;BME280;16133;49.486;12.176;2023-04-25T10:30:59;96741.69;;;15.05;56.55
29045;BME280;16133;49.486;12.176;2023-04-25T10:33:35;96741.03;;;14.73;56.02
29045;BME280;16133;49.486;12.176;2023-04-25T10:36:17;96737.75;;;14.28;56.44
29045;BME280;16133;49.486;12.176;2023-04-25T10:38:44;96736.88;;;14.34;57.32
29045;BME280;16133;49.486;12.176;2023-04-25T10:41:11;96735.78;;;14.42;57.98
29045;BME280;16133;49.486;12.176;2023-04-25T10:46:29;96733.16;;;13.54;59.95
29045;BME280;16133;49.486;12.176;2023-04-25T10:48:58;96724.72;;;12.75;60.86
29045;BME280;16133;49.486;12.176;2023-04-25T10:51:26;96720.13;;;12.18;63.18
29045;BME280;16133;49.486;12.176;2023-04-25T10:53:56;96715.19;;;11.88;65.20
29045;BME280;16133;49.486;12.176;2023-04-25T10:56:25;96715.81;;;11.77;68.27
29045;BME280;16133;49.486;12.176;2023-04-25T10:58:50;96714.78;;;11.85;68.62
29045;BME280;16133;49.486;12.176;2023-04-25T11:01:20;96711.09;;;11.66;66.89
29045;BME280;16133;49.486;12.176;2023-04-25T11:03:46;96699.63;;;11.59;66.61
29045;BME280;16133;49.486;12.176;2023-04-25T11:06:22;96707.25;;;12.02;66.77
29045;BME280;16133;49.486;12.176;2023-04-25T11:08:49;96703.28;;;12.43;64.19
29045;BME280;16133;49.486;12.176;2023-04-25T11:11:19;96705.00;;;12.89;62.95
29045;BME280;16133;49.486;12.176;2023-04-25T11:13:51;96705.91;;;13.08;62.09
29045;BME280;16133;49.486;12.176;2023-04-25T11:16:17;96711.22;;;13.21;62.28
29045;BME280;16133;49.486;12.176;2023-04-25T11:18:43;96704.63;;;13.30;63.23
29045;BME280;16133;49.486;12.176;2023-04-25T11:21:10;96715.38;;;13.48;61.87
29045;BME280;16133;49.486;12.176;2023-04-25T11:23:36;96712.81;;;13.28;60.31
29045;BME280;16133;49.486;12.176;2023-04-25T11:26:02;96718.84;;;13.04;60.70
29045;BME280;16133;49.486;12.176;2023-04-25T11:28:28;96724.19;;;13.11;59.38
29045;BME280;16133;49.486;12.176;2023-04-25T11:30:54;96718.97;;;13.29;58.83
29045;BME280;16133;49.486;12.176;2023-04-25T11:33:23;96728.19;;;13.26;58.36
29045;BME280;16133;49.486;12.176;2023-04-25T11:35:49;96720.13;;;12.95;58.21
29045;BME280;16133;49.486;12.176;2023-04-25T11:38:14;96707.72;;;12.69;57.89
29045;BME280;16133;49.486;12.176;2023-04-25T11:40:41;96712.28;;;12.42;59.12
29045;BME280;16133;49.486;12.176;2023-04-25T11:43:06;96722.75;;;12.37;60.12
29045;BME280;16133;49.486;12.176;2023-04-25T11:45:32;96716.22;;;12.01;61.13
29045;BME280;16133;49.486;12.176;2023-04-25T11:47:58;96715.78;;;11.64;62.99
29045;BME280;16133;49.486;12.176;2023-04-25T11:50:23;96712.25;;;11.31;66.40
29045;BME280;16133;49.486;12.176;2023-04-25T11:52:49;96711.06;;;11.40;64.13
29045;BME280;16133;49.486;12.176;2023-04-25T11:55:16;96703.91;;;11.40;65.29
29045;BME280;16133;49.486;12.176;2023-04-25T11:57:44;96712.16;;;11.91;65.08
29045;BME280;16133;49.486;12.176;2023-04-25T12:00:13;96707.34;;;12.59;63.39
29045;BME280;16133;49.486;12.176;2023-04-25T12:02:44;96713.66;;;13.29;59.27
29045;BME280;16133;49.486;12.176;2023-04-25T12:05:10;96709.50;;;13.71;57.50
29045;BME280;16133;49.486;12.176;2023-04-25T12:07:36;96713.91;;;14.08;55.05
29045;BME280;16133;49.486;12.176;2023-04-25T12:10:07;96715.69;;;13.89;55.71
29045;BME280;16133;49.486;12.176;2023-04-25T12:12:36;96717.38;;;13.84;56.27
29045;BME280;16133;49.486;12.176;2023-04-25T12:15:28;96723.59;;;13.78;57.21
29045;BME280;16133;49.486;12.176;2023-04-25T12:17:54;96721.34;;;13.75;56.33
29045;BME280;16133;49.486;12.176;2023-04-25T12:20:25;96715.13;;;13.56;55.34
29045;BME280;16133;49.486;12.176;2023-04-25T12:22:51;96709.16;;;13.29;54.69
29045;BME280;16133;49.486;12.176;2023-04-25T12:25:40;96717.00;;;13.05;53.77
29045;BME280;16133;49.486;12.176;2023-04-25T12:28:22;96719.63;;;12.60;55.35
29045;BME280;16133;49.486;12.176;2023-04-25T12:31:03;96713.91;;;12.50;55.23
29045;BME280;16133;49.486;12.176;2023-04-25T12:33:36;96707.94;;;12.61;56.55
29045;BME280;16133;49.486;12.176;2023-04-25T12:36:06;96712.16;;;12.95;57.25
29045;BME280;16133;49.486;12.176;2023-04-25T12:38:36;96726.41;;;13.20;53.74
29045;BME280;16133;49.486;12.176;2023-04-25T12:41:02;96719.91;;;13.10;53.48
29045;BME280;16133;49.486;12.176;2023-04-25T12:43:27;96712.94;;;13.02;53.63
29045;BME280;16133;49.486;12.176;2023-04-25T12:45:54;96719.22;;;13.21;54.48
29045;BME280;16133;49.486;12.176;2023-04-25T12:48:20;96717.72;;;13.31;55.38
29045;BME280;16133;49.486;12.176;2023-04-25T12:50:47;96721.31;;;13.50;53.38
29045;BME280;16133;49.486;12.176;2023-04-25T12:53:17;96728.31;;;13.45;52.34
29045;BME280;16133;49.486;12.176;2023-04-25T12:55:42;96733.31;;;13.28;52.51
29045;BME280;16133;49.486;12.176;2023-04-25T12:58:08;96731.69;;;13.27;52.10
29045;BME280;16133;49.486;12.176;2023-04-25T13:00:33;96725.53;;;13.26;52.20
29045;BME280;16133;49.486;12.176;2023-04-25T13:02:59;96723.00;;;13.38;53.55
29045;BME280;16133;49.486;12.176;2023-04-25T13:05:25;96722.59;;;13.72;52.28
29045;BME280;16133;49.486;12.176;2023-04-25T13:07:50;96734.03;;;14.04;52.14
29045;BME280;16133;49.486;12.176;2023-04-25T13:10:16;96733.38;;;14.40;51.03
29045;BME280;16133;49.486;12.176;2023-04-25T13:12:43;96726.16;;;14.16;50.62
29045;BME280;16133;49.486;12.176;2023-04-25T13:15:09;96750.03;;;13.79;49.35
29045;BME280;16133;49.486;12.176;2023-04-25T13:17:36;96744.81;;;13.28;50.94
29045;BME280;16133;49.486;12.176;2023-04-25T13:20:02;96743.94;;;12.83;51.09
29045;BME280;16133;49.486;12.176;2023-04-25T13:22:30;96745.19;;;12.74;49.92
29045;BME280;16133;49.486;12.176;2023-04-25T13:24:56;96739.41;;;12.90;50.47
29045;BME280;16133;49.486;12.176;2023-04-25T13:27:21;96750.03;;;12.97;49.95
29045;BME280;16133;49.486;12.176;2023-04-25T13:29:46;96749.34;;;13.21;49.44
29045;BME280;16133;49.486;12.176;2023-04-25T13:32:12;96766.75;;;13.62;49.14
29045;BME280;16133;49.486;12.176;2023-04-25T13:34:37;96745.94;;;13.77;47.33
29045;BME280;16133;49.486;12.176;2023-04-25T13:37:03;96766.38;;;13.89;48.21
29045;BME280;16133;49.486;12.176;2023-04-25T13:39:28;96758.88;;;13.73;46.84
29045;BME280;16133;49.486;12.176;2023-04-25T13:41:54;96770.50;;;13.54;48.00
29045;BME280;16133;49.486;12.176;2023-04-25T13:44:19;96771.84;;;13.32;47.92
29045;BME280;16133;49.486;12.176;2023-04-25T13:46:44;96782.38;;;13.14;46.17
29045;BME280;16133;49.486;12.176;2023-04-25T13:49:11;96774.59;;;13.06;46.08
29045;BME280;16133;49.486;12.176;2023-04-25T13:51:37;96786.06;;;13.06;45.78
29045;BME280;16133;49.486;12.176;2023-04-25T13:54:02;96781.16;;;13.10;45.60
29045;BME280;16133;49.486;12.176;2023-04-25T13:56:28;96787.06;;;13.05;45.91
29045;BME280;16133;49.486;12.176;2023-04-25T13:58:53;96775.13;;;13.27;46.02
29045;BME280;16133;49.486;12.176;2023-04-25T14:01:18;96798.63;;;13.44;44.84
29045;BME280;16133;49.486;12.176;2023-04-25T14:03:46;96796.78;;;13.44;44.93
29045;BME280;16133;49.486;12.176;2023-04-25T14:06:11;96805.75;;;13.56;45.62
29045;BME280;16133;49.486;12.176;2023-04-25T14:08:38;96795.53;;;13.47;46.29
29045;BME280;16133;49.486;12.176;2023-04-25T14:11:03;96803.69;;;13.58;46.15
29045;BME280;16133;49.486;12.176;2023-04-25T14:13:28;96804.72;;;13.57;46.76